createdAt,value
2022-12-27T00:01:26.021Z,101010.88
2022-12-27T00:03:52.881Z,101007.25
2022-12-27T00:06:21.777Z,101003.53
2022-12-27T00:08:48.514Z,101007.25
2022-12-27T00:11:18.164Z,101000.97
2022-12-27T00:13:44.623Z,101002.81
2022-12-27T00:16:14.361Z,101006.91
2022-12-27T00:18:41.718Z,101009.25
2022-12-27T00:21:11.348Z,101018.44
2022-12-27T00:23:43.098Z,101021.91
2022-12-27T00:26:21.012Z,101012.47
2022-12-27T00:28:47.872Z,101018.53
2022-12-27T00:31:14.968Z,101022.63
2022-12-27T00:33:43.248Z,101017.63
2022-12-27T00:36:13.647Z,101013.66
2022-12-27T00:38:40.049Z,101019.00
2022-12-27T00:41:06.791Z,101027.53
2022-12-27T00:43:33.275Z,101021.25
2022-12-27T00:45:59.729Z,101021.56
2022-12-27T00:48:26.187Z,101009.00
2022-12-27T00:51:05.187Z,101023.59
2022-12-27T00:53:33.663Z,101021.50
2022-12-27T00:56:00.158Z,101030.03
2022-12-27T00:58:26.798Z,101022.91
2022-12-27T01:00:53.557Z,101021.28
2022-12-27T01:03:20.155Z,101025.81
2022-12-27T01:05:46.462Z,101027.56
2022-12-27T01:08:12.939Z,101031.66
2022-12-27T01:10:41.010Z,101036.88
2022-12-27T01:13:07.951Z,101033.22
2022-12-27T01:15:34.249Z,101041.59
2022-12-27T01:18:00.619Z,101041.94
2022-12-27T01:20:26.927Z,101038.69
2022-12-27T01:22:54.207Z,101042.22
2022-12-27T01:25:20.515Z,101037.56
2022-12-27T01:27:46.814Z,101039.34
2022-12-27T01:30:13.207Z,101044.13
2022-12-27T01:32:39.522Z,101053.97
2022-12-27T01:35:06.075Z,101051.63
2022-12-27T01:37:32.387Z,101057.59
2022-12-27T01:39:58.681Z,101052.03
2022-12-27T01:42:24.980Z,101055.28
2022-12-27T01:44:55.924Z,101056.22
2022-12-27T01:47:40.138Z,101058.09
2022-12-27T01:50:12.438Z,101053.56
2022-12-27T01:52:44.684Z,101044.81
2022-12-27T01:55:18.541Z,101056.38
2022-12-27T01:57:46.400Z,101061.19
2022-12-27T02:00:13.076Z,101058.47
2022-12-27T02:02:40.718Z,101063.00
2022-12-27T02:05:09.941Z,101059.63
2022-12-27T02:07:54.555Z,101059.75
2022-12-27T02:10:20.882Z,101059.25
2022-12-27T02:12:47.522Z,101057.38
2022-12-27T02:15:13.816Z,101060.53
2022-12-27T02:17:40.219Z,101065.31
2022-12-27T02:20:14.308Z,101065.44
2022-12-27T02:23:09.461Z,101068.72
2022-12-27T02:25:50.807Z,101068.25
2022-12-27T02:28:41.492Z,101073.72
2022-12-27T02:31:16.897Z,101082.13
2022-12-27T02:33:48.040Z,101078.69
2022-12-27T02:36:26.848Z,101077.75
2022-12-27T02:38:57.889Z,101085.13
2022-12-27T02:41:26.090Z,101088.66
2022-12-27T02:43:56.395Z,101083.75
2022-12-27T02:46:28.723Z,101086.09
2022-12-27T02:48:57.837Z,101089.00
2022-12-27T02:51:48.585Z,101096.53
2022-12-27T02:54:34.735Z,101084.19
2022-12-27T02:57:21.353Z,101084.66
2022-12-27T03:00:04.735Z,101086.13
2022-12-27T03:02:49.379Z,101090.81
2022-12-27T03:05:30.652Z,101091.63
2022-12-27T03:08:17.853Z,101090.72
2022-12-27T03:10:48.327Z,101093.06
2022-12-27T03:13:34.364Z,101087.84
2022-12-27T03:16:37.226Z,101097.47
2022-12-27T03:19:18.940Z,101088.50
2022-12-27T03:21:48.493Z,101092.97
2022-12-27T03:24:18.372Z,101083.63
2022-12-27T03:26:48.799Z,101095.91
2022-12-27T03:29:19.676Z,101103.63
2022-12-27T03:31:54.041Z,101096.16
2022-12-27T03:34:27.103Z,101103.41
2022-12-27T03:37:00.234Z,101098.63
2022-12-27T03:39:34.333Z,101100.34
2022-12-27T03:42:07.242Z,101102.81
2022-12-27T03:44:33.707Z,101103.03
2022-12-27T03:47:16.218Z,101112.63
2022-12-27T03:50:17.584Z,101114.16
2022-12-27T03:52:58.707Z,101110.69
2022-12-27T03:55:29.964Z,101110.81
2022-12-27T03:57:59.591Z,101112.31
2022-12-27T04:00:25.905Z,101112.69
2022-12-27T04:02:52.416Z,101115.56
2022-12-27T04:05:18.849Z,101114.91
2022-12-27T04:07:45.159Z,101113.50
2022-12-27T04:10:12.715Z,101118.88
2022-12-27T04:12:39.038Z,101127.72
2022-12-27T04:15:05.779Z,101128.31
2022-12-27T04:17:32.275Z,101134.53
2022-12-27T04:19:58.578Z,101126.81
2022-12-27T04:22:24.879Z,101126.81
2022-12-27T04:24:51.212Z,101134.63
2022-12-27T04:27:17.514Z,101122.03
2022-12-27T04:29:43.822Z,101124.72
2022-12-27T04:32:10.126Z,101130.41
2022-12-27T04:34:36.494Z,101125.06
2022-12-27T04:37:02.977Z,101123.44
2022-12-27T04:39:29.328Z,101128.00
2022-12-27T04:41:55.616Z,101137.00
2022-12-27T04:44:22.016Z,101136.75
2022-12-27T04:46:48.467Z,101137.47
2022-12-27T04:49:23.049Z,101123.22
2022-12-27T04:51:49.347Z,101129.50
2022-12-27T04:54:22.533Z,101131.16
2022-12-27T04:56:48.880Z,101126.56
2022-12-27T04:59:15.189Z,101124.03
2022-12-27T05:01:41.768Z,101119.00
2022-12-27T05:04:08.405Z,101127.28
2022-12-27T05:06:34.756Z,101117.00
2022-12-27T05:09:01.103Z,101114.09
2022-12-27T05:11:27.704Z,101125.97
2022-12-27T05:13:54.007Z,101127.16
2022-12-27T05:16:20.397Z,101130.66
2022-12-27T05:18:46.746Z,101130.63
2022-12-27T05:21:13.241Z,101133.97
2022-12-27T05:23:39.565Z,101142.84
2022-12-27T05:26:05.865Z,101139.94
2022-12-27T05:28:32.228Z,101146.81
2022-12-27T05:31:02.266Z,101146.72
2022-12-27T05:33:31.300Z,101148.09
2022-12-27T05:35:59.338Z,101147.19
2022-12-27T05:38:25.659Z,101158.44
2022-12-27T05:40:57.519Z,101160.41
2022-12-27T05:43:23.852Z,101159.22
2022-12-27T05:45:50.157Z,101165.44
2022-12-27T05:48:16.467Z,101168.38
2022-12-27T05:50:42.810Z,101167.00
2022-12-27T05:53:09.136Z,101168.97
2022-12-27T05:55:35.478Z,101168.28
2022-12-27T05:58:01.832Z,101177.00
2022-12-27T06:00:28.198Z,101179.34
2022-12-27T06:02:54.602Z,101202.91
2022-12-27T06:05:20.978Z,101189.63
2022-12-27T06:07:47.297Z,101205.13
2022-12-27T06:10:13.679Z,101209.72
2022-12-27T06:12:39.991Z,101206.34
2022-12-27T06:15:06.977Z,101198.41
2022-12-27T06:17:33.364Z,101220.47
2022-12-27T06:19:59.691Z,101208.34
2022-12-27T06:22:26.005Z,101215.69
2022-12-27T06:24:52.335Z,101213.72
2022-12-27T06:27:18.746Z,101209.16
2022-12-27T06:29:45.266Z,101213.00
2022-12-27T06:32:11.591Z,101198.75
2022-12-27T06:34:37.905Z,101210.91
2022-12-27T06:37:04.231Z,101210.97
2022-12-27T06:39:30.522Z,101214.75
2022-12-27T06:41:56.888Z,101213.31
2022-12-27T06:44:23.220Z,101219.75
2022-12-27T06:46:49.521Z,101223.84
2022-12-27T06:49:15.864Z,101230.38
2022-12-27T06:51:42.157Z,101231.19
2022-12-27T06:54:08.509Z,101234.50
2022-12-27T06:56:34.878Z,101234.81
2022-12-27T06:59:01.207Z,101252.38
2022-12-27T07:01:28.101Z,101259.16
2022-12-27T07:03:57.406Z,101264.78
2022-12-27T07:06:25.643Z,101259.97
2022-12-27T07:08:52.362Z,101264.06
2022-12-27T07:11:20.114Z,101262.66
2022-12-27T07:13:49.341Z,101270.16
2022-12-27T07:16:18.806Z,101272.13
2022-12-27T07:18:45.792Z,101265.59
2022-12-27T07:21:14.528Z,101270.50
2022-12-27T07:23:41.458Z,101268.03
2022-12-27T07:26:10.618Z,101267.56
2022-12-27T07:28:37.742Z,101279.03
2022-12-27T07:31:08.841Z,101280.09
2022-12-27T07:33:36.799Z,101285.00
2022-12-27T07:36:03.928Z,101290.25
2022-12-27T07:38:30.224Z,101300.75
2022-12-27T07:40:59.324Z,101299.81
2022-12-27T07:43:26.413Z,101306.13
2022-12-27T07:45:52.756Z,101310.34
2022-12-27T07:48:19.093Z,101316.78
2022-12-27T07:50:53.625Z,101311.88
2022-12-27T07:53:19.911Z,101317.13
2022-12-27T07:55:46.222Z,101328.69
2022-12-27T07:58:12.943Z,101325.06
2022-12-27T08:00:39.268Z,101322.63
2022-12-27T08:03:05.762Z,101330.34
2022-12-27T08:05:32.154Z,101329.50
2022-12-27T08:07:58.545Z,101329.97
2022-12-27T08:10:24.866Z,101327.75
2022-12-27T08:12:51.239Z,101320.16
2022-12-27T08:15:17.557Z,101322.38
2022-12-27T08:17:43.848Z,101332.91
2022-12-27T08:20:14.358Z,101331.50
2022-12-27T08:22:40.661Z,101332.19
2022-12-27T08:25:07.692Z,101335.59
2022-12-27T08:27:34.065Z,101332.44
2022-12-27T08:30:00.369Z,101333.13
2022-12-27T08:32:26.805Z,101340.16
2022-12-27T08:34:53.138Z,101343.66
2022-12-27T08:37:19.429Z,101339.78
2022-12-27T08:39:45.738Z,101338.50
2022-12-27T08:42:13.374Z,101346.09
2022-12-27T08:44:39.678Z,101338.03
2022-12-27T08:47:06.125Z,101335.94
2022-12-27T08:49:32.419Z,101334.88
2022-12-27T08:51:58.723Z,101340.09
2022-12-27T08:54:25.093Z,101342.56
2022-12-27T08:56:51.404Z,101338.28
2022-12-27T08:59:17.715Z,101340.38
2022-12-27T09:01:44.106Z,101347.38
2022-12-27T09:04:10.523Z,101353.34
2022-12-27T09:06:39.606Z,101359.34
2022-12-27T09:09:06.431Z,101359.47
2022-12-27T09:11:34.211Z,101360.97
2022-12-27T09:14:02.689Z,101368.94
2022-12-27T09:16:30.010Z,101367.19
2022-12-27T09:18:57.943Z,101378.03
2022-12-27T09:21:27.218Z,101374.78
2022-12-27T09:23:54.484Z,101384.59
2022-12-27T09:26:23.225Z,101389.97
2022-12-27T09:28:50.300Z,101388.78
2022-12-27T09:31:18.136Z,101389.03
2022-12-27T09:33:44.752Z,101391.59
2022-12-27T09:36:13.795Z,101389.25
2022-12-27T09:38:40.913Z,101398.16
2022-12-27T09:41:47.655Z,101396.16
2022-12-27T09:44:15.224Z,101414.41
2022-12-27T09:46:47.433Z,101417.22
2022-12-27T09:49:17.313Z,101408.91
2022-12-27T09:51:51.871Z,101412.50
2022-12-27T09:54:27.494Z,101411.94
2022-12-27T09:57:18.900Z,101423.84
2022-12-27T09:59:47.109Z,101421.97
2022-12-27T10:02:21.853Z,101412.72
2022-12-27T10:07:46.862Z,101417.22
2022-12-27T10:10:31.775Z,101417.25
2022-12-27T10:13:15.790Z,101404.13
2022-12-27T10:15:59.134Z,101410.75
2022-12-27T10:18:46.784Z,101409.03
2022-12-27T10:21:24.637Z,101414.84
2022-12-27T10:23:56.203Z,101416.41
2022-12-27T10:26:22.845Z,101420.50
2022-12-27T10:29:01.315Z,101427.63
2022-12-27T10:31:30.374Z,101418.50
2022-12-27T10:33:57.395Z,101417.06
2022-12-27T10:36:26.327Z,101430.13
2022-12-27T10:38:52.705Z,101431.34
2022-12-27T10:41:30.982Z,101419.38
2022-12-27T10:43:57.684Z,101426.06
2022-12-27T10:46:28.950Z,101418.38
2022-12-27T10:51:44.910Z,101431.56
2022-12-27T10:54:30.352Z,101424.06
2022-12-27T10:57:15.347Z,101426.38
2022-12-27T10:59:41.673Z,101418.28
2022-12-27T11:02:17.597Z,101416.03
2022-12-27T11:04:58.677Z,101421.44
2022-12-27T11:07:33.369Z,101420.13
2022-12-27T11:10:17.650Z,101433.50
2022-12-27T11:13:04.716Z,101431.22
2022-12-27T11:15:36.624Z,101430.47
2022-12-27T11:18:19.534Z,101435.13
2022-12-27T11:20:51.106Z,101437.72
2022-12-27T11:23:20.367Z,101428.88
2022-12-27T11:25:52.804Z,101438.94
2022-12-27T11:28:35.374Z,101439.97
2022-12-27T11:31:11.530Z,101435.53
2022-12-27T11:33:47.469Z,101439.66
2022-12-27T11:36:22.864Z,101448.69
2022-12-27T11:38:50.236Z,101452.03
2022-12-27T11:41:31.229Z,101442.72
2022-12-27T11:44:03.160Z,101462.88
2022-12-27T11:46:44.088Z,101454.78
2022-12-27T11:49:26.173Z,101458.41
2022-12-27T11:52:33.553Z,101454.47
2022-12-27T11:55:16.247Z,101450.63
2022-12-27T11:58:02.233Z,101444.41
2022-12-27T12:00:50.880Z,101445.72
2022-12-27T12:03:35.452Z,101445.06
2022-12-27T12:06:16.691Z,101441.41
2022-12-27T12:09:14.593Z,101435.69
2022-12-27T12:12:04.367Z,101432.16
2022-12-27T12:14:33.817Z,101432.97
2022-12-27T12:17:14.240Z,101430.63
2022-12-27T12:19:48.375Z,101428.69
2022-12-27T12:22:26.709Z,101430.44
2022-12-27T12:25:02.938Z,101429.16
2022-12-27T12:28:47.310Z,101429.16
2022-12-27T12:31:35.782Z,101426.44
2022-12-27T12:34:28.488Z,101431.41
2022-12-27T12:37:13.740Z,101421.53
2022-12-27T12:39:42.978Z,101422.81
2022-12-27T12:42:23.950Z,101423.41
2022-12-27T12:45:15.296Z,101420.13
2022-12-27T12:47:51.899Z,101420.31
2022-12-27T12:50:51.969Z,101424.50
2022-12-27T12:53:34.485Z,101414.16
2022-12-27T12:56:18.878Z,101411.56
2022-12-27T12:59:12.755Z,101409.50
2022-12-27T13:02:03.305Z,101410.19
2022-12-27T13:04:57.249Z,101403.81
2022-12-27T13:07:44.218Z,101402.38
2022-12-27T13:10:34.067Z,101399.53
2022-12-27T13:13:29.230Z,101393.06
2022-12-27T13:16:11.027Z,101399.78
2022-12-27T13:19:11.621Z,101404.00
2022-12-27T13:22:08.464Z,101391.28
2022-12-27T13:25:01.369Z,101386.44
2022-12-27T13:27:45.383Z,101384.72
2022-12-27T13:30:29.514Z,101381.44
2022-12-27T13:33:08.027Z,101389.72
2022-12-27T13:35:46.406Z,101376.88
2022-12-27T13:38:30.946Z,101374.25
2022-12-27T13:41:26.368Z,101374.44
2022-12-27T13:44:10.309Z,101380.16
2022-12-27T13:46:51.440Z,101378.44
2022-12-27T13:49:45.358Z,101361.59
2022-12-27T13:52:42.157Z,101370.16
2022-12-27T13:55:32.050Z,101365.63
2022-12-27T13:58:29.157Z,101365.53
2022-12-27T14:01:06.817Z,101359.28
2022-12-27T14:03:43.749Z,101350.88
2022-12-27T14:06:43.687Z,101342.22
2022-12-27T14:10:01.257Z,101343.38
2022-12-27T14:12:38.649Z,101350.66
2022-12-27T14:15:07.950Z,101345.66
2022-12-27T14:17:49.078Z,101345.53
2022-12-27T14:20:56.986Z,101344.16
2022-12-27T14:23:48.485Z,101341.53
2022-12-27T14:26:34.710Z,101338.66
2022-12-27T14:29:19.817Z,101341.91
2022-12-27T14:32:27.675Z,101343.63
2022-12-27T14:35:30.115Z,101333.97
2022-12-27T14:38:17.595Z,101336.44
2022-12-27T14:41:02.719Z,101328.59
2022-12-27T14:43:55.162Z,101326.31
2022-12-27T14:46:54.075Z,101330.78
2022-12-27T14:49:32.639Z,101324.34
2022-12-27T14:52:56.230Z,101328.91
2022-12-27T14:55:34.572Z,101321.88
2022-12-27T14:58:38.944Z,101332.47
2022-12-27T15:01:23.816Z,101325.09
2022-12-27T15:03:58.729Z,101328.59
2022-12-27T15:06:36.938Z,101319.06
2022-12-27T15:09:09.368Z,101318.50
2022-12-27T15:11:41.747Z,101317.13
2022-12-27T15:14:26.876Z,101315.75
2022-12-27T15:16:59.203Z,101316.34
2022-12-27T15:19:47.027Z,101313.06
2022-12-27T15:22:32.125Z,101314.16
2022-12-27T15:25:21.140Z,101308.44
2022-12-27T15:28:13.873Z,101303.88
2022-12-27T15:30:51.330Z,101296.59
2022-12-27T15:33:20.432Z,101294.38
2022-12-27T15:36:25.404Z,101296.72
2022-12-27T15:38:54.967Z,101297.03
2022-12-27T15:41:47.270Z,101303.50
2022-12-27T15:44:39.512Z,101301.28
2022-12-27T15:47:38.295Z,101306.31
2022-12-27T15:50:24.447Z,101301.28
2022-12-27T15:52:56.713Z,101301.66
2022-12-27T15:56:06.391Z,101295.00
2022-12-27T15:58:33.416Z,101291.63
2022-12-27T16:01:26.062Z,101299.47
2022-12-27T16:03:53.788Z,101304.16
2022-12-27T16:06:35.191Z,101305.09
2022-12-27T16:09:37.554Z,101300.66
2022-12-27T16:12:38.076Z,101306.69
2022-12-27T16:15:36.993Z,101302.72
2022-12-27T16:18:04.312Z,101295.38
2022-12-27T16:20:32.245Z,101294.53
2022-12-27T16:23:01.581Z,101294.53
2022-12-27T16:25:34.246Z,101295.50
2022-12-27T16:28:15.780Z,101292.56
2022-12-27T16:30:54.519Z,101294.53
2022-12-27T16:33:27.182Z,101273.41
2022-12-27T16:36:11.866Z,101275.72
2022-12-27T16:38:44.765Z,101268.84
2022-12-27T16:41:36.163Z,101284.03
2022-12-27T16:44:02.440Z,101276.19
2022-12-27T16:46:56.052Z,101268.69
2022-12-27T16:49:40.923Z,101259.81
2022-12-27T16:52:13.097Z,101265.66
2022-12-27T16:54:54.428Z,101261.06
2022-12-27T16:57:23.522Z,101266.47
2022-12-27T17:00:10.271Z,101274.03
2022-12-27T17:02:46.747Z,101270.88
2022-12-27T17:05:16.241Z,101274.38
2022-12-27T17:07:54.997Z,101274.38
2022-12-27T17:10:27.261Z,101270.25
2022-12-27T17:13:05.116Z,101275.72
2022-12-27T17:15:32.236Z,101268.44
2022-12-27T17:18:08.801Z,101268.91
2022-12-27T17:20:38.407Z,101265.00
2022-12-27T17:23:05.859Z,101268.94
2022-12-27T17:25:48.495Z,101264.06
2022-12-27T17:28:25.645Z,101267.34
2022-12-27T17:30:58.999Z,101261.28
2022-12-27T17:33:39.373Z,101254.28
2022-12-27T17:36:05.669Z,101251.91
2022-12-27T17:39:07.651Z,101247.00
2022-12-27T17:42:12.309Z,101248.41
2022-12-27T17:45:03.219Z,101245.31
2022-12-27T17:47:57.520Z,101242.53
2022-12-27T17:50:26.000Z,101245.72
2022-12-27T17:53:14.730Z,101242.88
2022-12-27T17:55:41.475Z,101236.25
2022-12-27T17:58:11.468Z,101244.03
2022-12-27T18:00:49.952Z,101234.72
2022-12-27T18:03:16.473Z,101239.69
2022-12-27T18:05:45.798Z,101241.09
2022-12-27T18:08:24.708Z,101242.06
2022-12-27T18:10:51.283Z,101238.56
2022-12-27T18:13:20.478Z,101233.75
2022-12-27T18:15:49.526Z,101238.16
2022-12-27T18:18:26.823Z,101238.22
2022-12-27T18:20:59.868Z,101230.97
2022-12-27T18:23:26.831Z,101225.97
2022-12-27T18:25:56.229Z,101223.44
2022-12-27T18:28:32.921Z,101209.06
2022-12-27T18:31:15.663Z,101202.22
2022-12-27T18:33:44.541Z,101204.44
2022-12-27T18:36:21.785Z,101202.94
2022-12-27T18:38:54.900Z,101200.56
2022-12-27T18:41:22.617Z,101187.41
2022-12-27T18:43:52.869Z,101182.00
2022-12-27T18:46:30.293Z,101179.38
2022-12-27T18:48:57.432Z,101166.22
2022-12-27T18:51:32.959Z,101162.44
2022-12-27T18:53:59.576Z,101154.81
2022-12-27T18:56:29.446Z,101164.38
2022-12-27T18:59:23.157Z,101159.31
2022-12-27T19:01:49.510Z,101154.03
2022-12-27T19:04:15.832Z,101158.13
2022-12-27T19:06:50.049Z,101155.50
2022-12-27T19:09:19.597Z,101148.47
2022-12-27T19:11:55.257Z,101148.84
2022-12-27T19:14:22.877Z,101145.53
2022-12-27T19:17:02.858Z,101142.56
2022-12-27T19:19:32.208Z,101132.28
2022-12-27T19:21:58.669Z,101128.47
2022-12-27T19:24:24.917Z,101118.28
2022-12-27T19:26:51.216Z,101131.97
2022-12-27T19:29:24.731Z,101119.88
2022-12-27T19:31:58.448Z,101126.28
2022-12-27T19:34:28.925Z,101118.75
2022-12-27T19:36:55.558Z,101119.59
2022-12-27T19:39:28.614Z,101116.63
2022-12-27T19:42:00.912Z,101122.13
2022-12-27T19:44:28.463Z,101119.44
2022-12-27T19:46:54.768Z,101116.63
2022-12-27T19:49:41.690Z,101119.75
2022-12-27T19:52:15.176Z,101113.72
2022-12-27T19:54:41.591Z,101126.63
2022-12-27T19:57:11.075Z,101127.78
2022-12-27T19:59:37.404Z,101115.94
2022-12-27T20:02:03.863Z,101119.63
2022-12-27T20:04:30.377Z,101118.00
2022-12-27T20:06:56.857Z,101125.25
2022-12-27T20:09:23.178Z,101123.06
2022-12-27T20:11:49.676Z,101123.31
2022-12-27T20:14:16.032Z,101116.03
2022-12-27T20:16:42.418Z,101109.53
2022-12-27T20:19:12.735Z,101100.63
2022-12-27T20:21:39.795Z,101086.19
2022-12-27T20:24:06.505Z,101088.13
2022-12-27T20:26:32.819Z,101091.25
2022-12-27T20:28:59.421Z,101092.31
2022-12-27T20:31:25.749Z,101089.47
2022-12-27T20:33:54.333Z,101096.22
2022-12-27T20:36:21.779Z,101098.91
2022-12-27T20:38:48.254Z,101087.94
2022-12-27T20:41:16.759Z,101087.03
2022-12-27T20:43:43.276Z,101089.59
2022-12-27T20:46:12.458Z,101084.34
2022-12-27T20:48:40.872Z,101084.03
2022-12-27T20:51:13.794Z,101092.47
2022-12-27T20:53:40.189Z,101082.16
2022-12-27T20:56:07.444Z,101084.13
2022-12-27T20:58:33.815Z,101082.97
2022-12-27T21:01:15.068Z,101076.84
2022-12-27T21:03:42.827Z,101068.38
2022-12-27T21:06:12.573Z,101063.97
2022-12-27T21:08:46.522Z,101068.88
2022-12-27T21:11:20.148Z,101070.31
2022-12-27T21:13:47.007Z,101071.34
2022-12-27T21:16:17.419Z,101066.63
2022-12-27T21:18:43.764Z,101068.50
2022-12-27T21:21:13.344Z,101070.13
2022-12-27T21:23:40.297Z,101067.31
2022-12-27T21:26:15.734Z,101065.38
2022-12-27T21:28:42.540Z,101060.84
2022-12-27T21:31:10.274Z,101072.03
2022-12-27T21:33:36.649Z,101067.94
2022-12-27T21:36:08.324Z,101059.41
2022-12-27T21:38:35.249Z,101061.78
2022-12-27T21:41:29.041Z,101061.88
2022-12-27T21:43:55.772Z,101057.47
2022-12-27T21:46:24.837Z,101054.09
2022-12-27T21:48:57.058Z,101047.91
2022-12-27T21:51:23.926Z,101049.78
2022-12-27T21:53:50.351Z,101052.13
2022-12-27T21:56:17.409Z,101051.50
2022-12-27T21:58:44.973Z,101044.03
2022-12-27T22:01:12.598Z,101037.94
2022-12-27T22:03:41.166Z,101034.13
2022-12-27T22:06:23.001Z,101033.66
2022-12-27T22:08:51.972Z,101030.00
2022-12-27T22:11:21.071Z,101030.97
2022-12-27T22:13:47.971Z,101031.56
2022-12-27T22:16:16.727Z,101038.25
2022-12-27T22:18:43.371Z,101034.25
2022-12-27T22:21:15.313Z,101025.25
2022-12-27T22:23:44.317Z,101025.00
2022-12-27T22:26:13.284Z,101029.66
2022-12-27T22:28:40.547Z,101030.63
2022-12-27T22:31:09.295Z,101035.38
2022-12-27T22:33:36.205Z,101027.34
2022-12-27T22:36:11.992Z,101017.41
2022-12-27T22:38:38.543Z,101025.47
2022-12-27T22:41:23.283Z,101009.34
2022-12-27T22:43:58.151Z,101002.78
2022-12-27T22:46:25.123Z,100992.66
2022-12-27T22:48:53.595Z,100987.84
2022-12-27T22:51:25.997Z,100985.16
2022-12-27T22:53:52.663Z,100984.94
2022-12-27T22:56:22.374Z,100980.56
2022-12-27T22:58:49.056Z,100975.28
2022-12-27T23:01:21.410Z,100970.22
2022-12-27T23:03:48.306Z,100967.94
2022-12-27T23:06:15.203Z,100961.94
2022-12-27T23:08:43.381Z,100955.88
2022-12-27T23:11:19.209Z,100942.38
2022-12-27T23:13:46.483Z,100948.63
2022-12-27T23:16:12.884Z,100945.59
2022-12-27T23:18:39.310Z,100935.81
2022-12-27T23:21:21.456Z,100930.94
2022-12-27T23:23:50.550Z,100920.88
2022-12-27T23:26:19.671Z,100911.97
2022-12-27T23:28:47.322Z,100919.72
2022-12-27T23:31:14.673Z,100900.88
2022-12-27T23:33:42.617Z,100897.41
2022-12-27T23:36:09.594Z,100899.81
2022-12-27T23:38:36.411Z,100882.75
2022-12-27T23:41:05.747Z,100880.19
2022-12-27T23:43:51.605Z,100865.16
2022-12-27T23:46:23.001Z,100871.91
2022-12-27T23:48:50.271Z,100863.75
2022-12-27T23:51:16.904Z,100864.47
2022-12-27T23:53:44.435Z,100849.84
2022-12-27T23:56:28.046Z,100848.69
2022-12-27T23:58:56.535Z,100851.94
